sensor_id;sensor_type;location;lat;lon;timestamp;P1;durP1;ratioP1;P2;durP2;ratioP2
69775;SDS011;57049;51.450;-2.516;2022-09-03T00:00:44;9.77;;;5.63;;
69775;SDS011;57049;51.450;-2.516;2022-09-03T00:03:22;11.48;;;6.40;;
69775;SDS011;57049;51.450;-2.516;2022-09-03T00:05:52;11.00;;;5.32;;
69775;SDS011;57049;51.450;-2.516;2022-09-03T00:08:34;10.32;;;4.85;;
69775;SDS011;57049;51.450;-2.516;2022-09-03T00:11:19;9.80;;;4.78;;
69775;SDS011;57049;51.450;-2.516;2022-09-03T00:13:56;10.90;;;5.27;;
69775;SDS011;57049;51.450;-2.516;2022-09-03T00:16:28;9.75;;;4.97;;
69775;SDS011;57049;51.450;-2.516;2022-09-03T00:19:08;10.85;;;5.45;;
69775;SDS011;57049;51.450;-2.516;2022-09-03T00:21:55;10.65;;;5.43;;
69775;SDS011;57049;51.450;-2.516;2022-09-03T00:24:25;10.80;;;5.60;;
69775;SDS011;57049;51.450;-2.516;2022-09-03T00:26:56;10.67;;;5.53;;
69775;SDS011;57049;51.450;-2.516;2022-09-03T00:32:43;9.63;;;4.75;;
69775;SDS011;57049;51.450;-2.516;2022-09-03T00:34:57;12.30;;;5.30;;
69775;SDS011;57049;51.450;-2.516;2022-09-03T00:37:27;12.15;;;5.47;;
69775;SDS011;57049;51.450;-2.516;2022-09-03T00:39:54;13.43;;;5.30;;
69775;SDS011;57049;51.450;-2.516;2022-09-03T00:42:41;12.88;;;5.80;;
69775;SDS011;57049;51.450;-2.516;2022-09-03T00:47:53;12.63;;;5.95;;
69775;SDS011;57049;51.450;-2.516;2022-09-03T00:53:26;10.67;;;5.47;;
69775;SDS011;57049;51.450;-2.516;2022-09-03T01:04:54;12.05;;;5.45;;
69775;SDS011;57049;51.450;-2.516;2022-09-03T01:15:46;11.55;;;5.22;;
69775;SDS011;57049;51.450;-2.516;2022-09-03T01:18:18;10.13;;;4.97;;
69775;SDS011;57049;51.450;-2.516;2022-09-03T01:26:21;13.47;;;5.90;;
69775;SDS011;57049;51.450;-2.516;2022-09-03T01:29:23;11.63;;;5.85;;
69775;SDS011;57049;51.450;-2.516;2022-09-03T01:32:45;14.75;;;5.40;;
69775;SDS011;57049;51.450;-2.516;2022-09-03T01:40:39;10.57;;;5.63;;
69775;SDS011;57049;51.450;-2.516;2022-09-03T01:46:09;13.23;;;6.07;;
69775;SDS011;57049;51.450;-2.516;2022-09-03T01:48:52;13.95;;;6.38;;
69775;SDS011;57049;51.450;-2.516;2022-09-03T01:51:24;14.32;;;6.07;;
69775;SDS011;57049;51.450;-2.516;2022-09-03T01:56:36;13.90;;;6.78;;
69775;SDS011;57049;51.450;-2.516;2022-09-03T01:59:47;13.10;;;6.60;;
69775;SDS011;57049;51.450;-2.516;2022-09-03T02:02:23;15.57;;;6.68;;
69775;SDS011;57049;51.450;-2.516;2022-09-03T02:07:23;13.10;;;6.50;;
69775;SDS011;57049;51.450;-2.516;2022-09-03T02:09:53;16.00;;;7.35;;
69775;SDS011;57049;51.450;-2.516;2022-09-03T02:12:18;15.20;;;7.07;;
69775;SDS011;57049;51.450;-2.516;2022-09-03T02:14:45;12.80;;;6.40;;
69775;SDS011;57049;51.450;-2.516;2022-09-03T02:17:11;16.48;;;7.35;;
69775;SDS011;57049;51.450;-2.516;2022-09-03T02:19:37;14.33;;;7.10;;
69775;SDS011;57049;51.450;-2.516;2022-09-03T02:22:03;14.85;;;6.97;;
69775;SDS011;57049;51.450;-2.516;2022-09-03T02:24:29;16.58;;;7.22;;
69775;SDS011;57049;51.450;-2.516;2022-09-03T02:26:55;17.73;;;6.90;;
69775;SDS011;57049;51.450;-2.516;2022-09-03T02:29:21;16.00;;;7.80;;
69775;SDS011;57049;51.450;-2.516;2022-09-03T02:31:47;14.68;;;7.22;;
69775;SDS011;57049;51.450;-2.516;2022-09-03T02:34:13;14.80;;;6.60;;
69775;SDS011;57049;51.450;-2.516;2022-09-03T02:36:40;17.53;;;7.50;;
69775;SDS011;57049;51.450;-2.516;2022-09-03T02:39:10;17.25;;;7.72;;
69775;SDS011;57049;51.450;-2.516;2022-09-03T02:41:36;17.98;;;7.85;;
69775;SDS011;57049;51.450;-2.516;2022-09-03T02:46:37;18.00;;;8.45;;
69775;SDS011;57049;51.450;-2.516;2022-09-03T02:49:05;19.70;;;8.47;;
69775;SDS011;57049;51.450;-2.516;2022-09-03T02:51:40;18.88;;;8.20;;
69775;SDS011;57049;51.450;-2.516;2022-09-03T02:54:08;20.95;;;9.35;;
69775;SDS011;57049;51.450;-2.516;2022-09-03T02:56:34;17.42;;;8.10;;
69775;SDS011;57049;51.450;-2.516;2022-09-03T02:59:01;17.27;;;8.38;;
69775;SDS011;57049;51.450;-2.516;2022-09-03T03:01:30;19.33;;;8.53;;
69775;SDS011;57049;51.450;-2.516;2022-09-03T03:03:56;24.67;;;8.77;;
69775;SDS011;57049;51.450;-2.516;2022-09-03T03:06:21;24.57;;;9.57;;
69775;SDS011;57049;51.450;-2.516;2022-09-03T03:08:48;28.83;;;9.77;;
69775;SDS011;57049;51.450;-2.516;2022-09-03T03:11:15;30.98;;;10.55;;
69775;SDS011;57049;51.450;-2.516;2022-09-03T03:13:42;28.15;;;10.15;;
69775;SDS011;57049;51.450;-2.516;2022-09-03T03:16:12;29.63;;;10.60;;
69775;SDS011;57049;51.450;-2.516;2022-09-03T03:18:39;33.80;;;10.80;;
69775;SDS011;57049;51.450;-2.516;2022-09-03T03:21:05;31.88;;;10.52;;
69775;SDS011;57049;51.450;-2.516;2022-09-03T03:23:34;31.42;;;10.65;;
69775;SDS011;57049;51.450;-2.516;2022-09-03T03:26:01;29.47;;;10.60;;
69775;SDS011;57049;51.450;-2.516;2022-09-03T03:28:28;30.77;;;11.32;;
69775;SDS011;57049;51.450;-2.516;2022-09-03T03:30:58;28.40;;;9.80;;
69775;SDS011;57049;51.450;-2.516;2022-09-03T03:33:30;27.80;;;10.55;;
69775;SDS011;57049;51.450;-2.516;2022-09-03T03:35:55;32.43;;;11.73;;
69775;SDS011;57049;51.450;-2.516;2022-09-03T03:38:21;34.23;;;11.40;;
69775;SDS011;57049;51.450;-2.516;2022-09-03T03:40:46;33.43;;;10.77;;
69775;SDS011;57049;51.450;-2.516;2022-09-03T03:43:12;29.10;;;10.50;;
69775;SDS011;57049;51.450;-2.516;2022-09-03T03:45:37;32.27;;;10.83;;
69775;SDS011;57049;51.450;-2.516;2022-09-03T03:48:02;32.90;;;11.18;;
69775;SDS011;57049;51.450;-2.516;2022-09-03T03:50:28;31.43;;;10.90;;
69775;SDS011;57049;51.450;-2.516;2022-09-03T03:52:53;32.90;;;12.07;;
69775;SDS011;57049;51.450;-2.516;2022-09-03T03:55:19;36.28;;;11.88;;
69775;SDS011;57049;51.450;-2.516;2022-09-03T03:57:44;34.30;;;11.03;;
69775;SDS011;57049;51.450;-2.516;2022-09-03T04:00:10;30.87;;;10.73;;
69775;SDS011;57049;51.450;-2.516;2022-09-03T04:02:36;29.10;;;10.77;;
69775;SDS011;57049;51.450;-2.516;2022-09-03T04:05:01;31.67;;;11.10;;
69775;SDS011;57049;51.450;-2.516;2022-09-03T04:07:27;32.93;;;10.63;;
69775;SDS011;57049;51.450;-2.516;2022-09-03T04:09:52;33.17;;;11.10;;
69775;SDS011;57049;51.450;-2.516;2022-09-03T04:12:17;31.67;;;11.77;;
69775;SDS011;57049;51.450;-2.516;2022-09-03T04:14:43;32.50;;;10.23;;
69775;SDS011;57049;51.450;-2.516;2022-09-03T04:17:08;27.55;;;10.73;;
69775;SDS011;57049;51.450;-2.516;2022-09-03T04:19:34;29.43;;;10.67;;
69775;SDS011;57049;51.450;-2.516;2022-09-03T04:21:59;30.33;;;10.57;;
69775;SDS011;57049;51.450;-2.516;2022-09-03T04:24:25;29.53;;;10.73;;
69775;SDS011;57049;51.450;-2.516;2022-09-03T04:26:51;29.10;;;10.75;;
69775;SDS011;57049;51.450;-2.516;2022-09-03T04:29:18;34.40;;;11.20;;
69775;SDS011;57049;51.450;-2.516;2022-09-03T04:31:43;30.55;;;10.65;;
69775;SDS011;57049;51.450;-2.516;2022-09-03T04:34:29;28.15;;;10.02;;
69775;SDS011;57049;51.450;-2.516;2022-09-03T04:36:54;27.00;;;10.80;;
69775;SDS011;57049;51.450;-2.516;2022-09-03T04:39:22;29.77;;;10.63;;
69775;SDS011;57049;51.450;-2.516;2022-09-03T04:41:47;27.90;;;10.63;;
69775;SDS011;57049;51.450;-2.516;2022-09-03T04:44:12;32.77;;;10.83;;
69775;SDS011;57049;51.450;-2.516;2022-09-03T04:46:38;28.27;;;9.93;;
69775;SDS011;57049;51.450;-2.516;2022-09-03T04:49:04;27.80;;;10.27;;
69775;SDS011;57049;51.450;-2.516;2022-09-03T04:51:31;28.88;;;9.93;;
69775;SDS011;57049;51.450;-2.516;2022-09-03T04:53:57;28.40;;;9.77;;
69775;SDS011;57049;51.450;-2.516;2022-09-03T04:56:25;25.80;;;9.73;;
69775;SDS011;57049;51.450;-2.516;2022-09-03T04:58:56;24.90;;;9.80;;
69775;SDS011;57049;51.450;-2.516;2022-09-03T05:01:25;26.90;;;10.20;;
69775;SDS011;57049;51.450;-2.516;2022-09-03T05:03:52;28.40;;;10.15;;
69775;SDS011;57049;51.450;-2.516;2022-09-03T05:06:20;26.13;;;9.73;;
69775;SDS011;57049;51.450;-2.516;2022-09-03T05:08:49;27.15;;;9.68;;
69775;SDS011;57049;51.450;-2.516;2022-09-03T05:11:15;24.15;;;9.15;;
69775;SDS011;57049;51.450;-2.516;2022-09-03T05:13:42;21.70;;;9.27;;
69775;SDS011;57049;51.450;-2.516;2022-09-03T05:16:08;22.80;;;9.07;;
69775;SDS011;57049;51.450;-2.516;2022-09-03T05:18:35;26.55;;;9.18;;
69775;SDS011;57049;51.450;-2.516;2022-09-03T05:21:02;27.63;;;9.48;;
69775;SDS011;57049;51.450;-2.516;2022-09-03T05:23:29;25.13;;;9.57;;
69775;SDS011;57049;51.450;-2.516;2022-09-03T05:25:56;25.93;;;10.70;;
69775;SDS011;57049;51.450;-2.516;2022-09-03T05:28:23;22.20;;;10.13;;
69775;SDS011;57049;51.450;-2.516;2022-09-03T05:30:59;27.17;;;9.25;;
69775;SDS011;57049;51.450;-2.516;2022-09-03T05:33:26;27.25;;;10.43;;
69775;SDS011;57049;51.450;-2.516;2022-09-03T05:35:52;25.13;;;10.38;;
69775;SDS011;57049;51.450;-2.516;2022-09-03T05:38:19;31.63;;;11.17;;
69775;SDS011;57049;51.450;-2.516;2022-09-03T05:40:45;25.27;;;9.77;;
69775;SDS011;57049;51.450;-2.516;2022-09-03T05:43:10;24.57;;;9.13;;
69775;SDS011;57049;51.450;-2.516;2022-09-03T05:45:36;20.65;;;8.93;;
69775;SDS011;57049;51.450;-2.516;2022-09-03T05:48:01;24.00;;;9.87;;
69775;SDS011;57049;51.450;-2.516;2022-09-03T05:50:27;27.10;;;10.70;;
69775;SDS011;57049;51.450;-2.516;2022-09-03T05:52:53;24.95;;;9.27;;
69775;SDS011;57049;51.450;-2.516;2022-09-03T05:55:18;24.73;;;10.10;;
69775;SDS011;57049;51.450;-2.516;2022-09-03T05:57:43;24.97;;;9.73;;
69775;SDS011;57049;51.450;-2.516;2022-09-03T06:00:10;28.55;;;10.38;;
69775;SDS011;57049;51.450;-2.516;2022-09-03T06:02:36;25.25;;;9.73;;
69775;SDS011;57049;51.450;-2.516;2022-09-03T06:05:01;25.43;;;9.67;;
69775;SDS011;57049;51.450;-2.516;2022-09-03T06:07:27;26.75;;;9.57;;
69775;SDS011;57049;51.450;-2.516;2022-09-03T06:09:53;23.42;;;9.73;;
69775;SDS011;57049;51.450;-2.516;2022-09-03T06:12:18;28.93;;;10.00;;
69775;SDS011;57049;51.450;-2.516;2022-09-03T06:14:44;27.63;;;10.23;;
69775;SDS011;57049;51.450;-2.516;2022-09-03T06:17:09;28.87;;;10.50;;
69775;SDS011;57049;51.450;-2.516;2022-09-03T06:19:36;24.35;;;9.75;;
69775;SDS011;57049;51.450;-2.516;2022-09-03T06:22:02;26.27;;;10.32;;
69775;SDS011;57049;51.450;-2.516;2022-09-03T06:24:28;26.03;;;9.97;;
69775;SDS011;57049;51.450;-2.516;2022-09-03T06:26:54;26.92;;;10.00;;
69775;SDS011;57049;51.450;-2.516;2022-09-03T06:29:20;23.63;;;9.98;;
69775;SDS011;57049;51.450;-2.516;2022-09-03T06:31:46;24.80;;;9.83;;
69775;SDS011;57049;51.450;-2.516;2022-09-03T06:34:15;20.92;;;9.15;;
69775;SDS011;57049;51.450;-2.516;2022-09-03T06:36:42;23.27;;;10.25;;
69775;SDS011;57049;51.450;-2.516;2022-09-03T06:39:08;22.42;;;9.70;;
69775;SDS011;57049;51.450;-2.516;2022-09-03T06:41:34;18.23;;;8.47;;
69775;SDS011;57049;51.450;-2.516;2022-09-03T06:44:03;17.23;;;7.93;;
69775;SDS011;57049;51.450;-2.516;2022-09-03T06:46:31;19.38;;;8.48;;
69775;SDS011;57049;51.450;-2.516;2022-09-03T06:48:59;21.13;;;9.23;;
69775;SDS011;57049;51.450;-2.516;2022-09-03T06:51:26;19.77;;;8.52;;
69775;SDS011;57049;51.450;-2.516;2022-09-03T06:53:54;20.50;;;8.88;;
69775;SDS011;57049;51.450;-2.516;2022-09-03T06:56:23;18.30;;;8.83;;
69775;SDS011;57049;51.450;-2.516;2022-09-03T06:58:56;18.45;;;8.38;;
69775;SDS011;57049;51.450;-2.516;2022-09-03T07:01:26;18.52;;;8.27;;
69775;SDS011;57049;51.450;-2.516;2022-09-03T07:03:55;17.50;;;8.30;;
69775;SDS011;57049;51.450;-2.516;2022-09-03T07:06:23;17.95;;;8.13;;
69775;SDS011;57049;51.450;-2.516;2022-09-03T07:08:50;16.43;;;7.50;;
69775;SDS011;57049;51.450;-2.516;2022-09-03T07:11:17;16.55;;;6.93;;
69775;SDS011;57049;51.450;-2.516;2022-09-03T07:13:47;18.30;;;7.63;;
69775;SDS011;57049;51.450;-2.516;2022-09-03T07:16:17;20.50;;;8.27;;
69775;SDS011;57049;51.450;-2.516;2022-09-03T07:18:44;18.35;;;8.05;;
69775;SDS011;57049;51.450;-2.516;2022-09-03T07:21:21;18.05;;;7.88;;
69775;SDS011;57049;51.450;-2.516;2022-09-03T07:23:49;19.13;;;8.75;;
69775;SDS011;57049;51.450;-2.516;2022-09-03T07:26:21;19.33;;;7.47;;
69775;SDS011;57049;51.450;-2.516;2022-09-03T07:28:52;18.17;;;8.00;;
69775;SDS011;57049;51.450;-2.516;2022-09-03T07:31:24;19.05;;;8.20;;
69775;SDS011;57049;51.450;-2.516;2022-09-03T07:33:55;19.77;;;7.93;;
69775;SDS011;57049;51.450;-2.516;2022-09-03T07:36:21;19.20;;;8.13;;
69775;SDS011;57049;51.450;-2.516;2022-09-03T07:38:49;18.55;;;7.90;;
69775;SDS011;57049;51.450;-2.516;2022-09-03T07:41:15;17.93;;;7.83;;
69775;SDS011;57049;51.450;-2.516;2022-09-03T07:43:44;20.65;;;8.50;;
69775;SDS011;57049;51.450;-2.516;2022-09-03T07:46:17;17.88;;;7.50;;
69775;SDS011;57049;51.450;-2.516;2022-09-03T07:48:57;18.60;;;8.03;;
69775;SDS011;57049;51.450;-2.516;2022-09-03T07:51:24;18.00;;;8.32;;
69775;SDS011;57049;51.450;-2.516;2022-09-03T07:53:55;17.85;;;7.65;;
69775;SDS011;57049;51.450;-2.516;2022-09-03T07:56:22;20.83;;;8.68;;
69775;SDS011;57049;51.450;-2.516;2022-09-03T07:58:48;18.20;;;8.18;;
69775;SDS011;57049;51.450;-2.516;2022-09-03T08:01:15;17.93;;;8.10;;
69775;SDS011;57049;51.450;-2.516;2022-09-03T08:03:43;17.48;;;7.82;;
69775;SDS011;57049;51.450;-2.516;2022-09-03T08:06:12;17.60;;;7.82;;
69775;SDS011;57049;51.450;-2.516;2022-09-03T08:08:39;15.75;;;6.97;;
69775;SDS011;57049;51.450;-2.516;2022-09-03T08:11:09;19.00;;;7.80;;
69775;SDS011;57049;51.450;-2.516;2022-09-03T08:13:40;18.00;;;7.95;;
69775;SDS011;57049;51.450;-2.516;2022-09-03T08:16:07;15.90;;;6.88;;
69775;SDS011;57049;51.450;-2.516;2022-09-03T08:18:34;16.95;;;7.75;;
69775;SDS011;57049;51.450;-2.516;2022-09-03T08:21:11;16.35;;;6.95;;
69775;SDS011;57049;51.450;-2.516;2022-09-03T08:23:43;16.10;;;6.90;;
69775;SDS011;57049;51.450;-2.516;2022-09-03T08:26:10;15.48;;;7.10;;
69775;SDS011;57049;51.450;-2.516;2022-09-03T08:28:37;15.88;;;7.55;;
69775;SDS011;57049;51.450;-2.516;2022-09-03T08:31:07;18.00;;;7.20;;
69775;SDS011;57049;51.450;-2.516;2022-09-03T08:33:35;15.23;;;6.78;;
69775;SDS011;57049;51.450;-2.516;2022-09-03T08:36:04;13.93;;;6.53;;
69775;SDS011;57049;51.450;-2.516;2022-09-03T08:38:32;16.85;;;7.20;;
69775;SDS011;57049;51.450;-2.516;2022-09-03T08:41:06;16.25;;;7.00;;
69775;SDS011;57049;51.450;-2.516;2022-09-03T08:46:19;10.65;;;5.57;;
69775;SDS011;57049;51.450;-2.516;2022-09-03T08:48:47;11.77;;;5.57;;
69775;SDS011;57049;51.450;-2.516;2022-09-03T08:51:13;12.93;;;5.75;;
69775;SDS011;57049;51.450;-2.516;2022-09-03T08:53:46;11.45;;;5.20;;
69775;SDS011;57049;51.450;-2.516;2022-09-03T08:56:16;12.40;;;5.45;;
69775;SDS011;57049;51.450;-2.516;2022-09-03T08:58:45;12.47;;;5.40;;
69775;SDS011;57049;51.450;-2.516;2022-09-03T09:09:34;13.50;;;6.20;;
69775;SDS011;57049;51.450;-2.516;2022-09-03T09:12:12;14.73;;;6.85;;
69775;SDS011;57049;51.450;-2.516;2022-09-03T09:26:06;16.05;;;7.80;;
69775;SDS011;57049;51.450;-2.516;2022-09-03T09:28:36;16.98;;;8.40;;
69775;SDS011;57049;51.450;-2.516;2022-09-03T09:31:03;20.83;;;8.80;;
69775;SDS011;57049;51.450;-2.516;2022-09-03T09:33:31;19.37;;;9.67;;
69775;SDS011;57049;51.450;-2.516;2022-09-03T09:35:59;19.42;;;8.63;;
69775;SDS011;57049;51.450;-2.516;2022-09-03T09:38:31;18.70;;;8.85;;
69775;SDS011;57049;51.450;-2.516;2022-09-03T09:41:33;17.27;;;9.20;;
69775;SDS011;57049;51.450;-2.516;2022-09-03T09:43:59;18.80;;;9.60;;
69775;SDS011;57049;51.450;-2.516;2022-09-03T09:46:28;20.67;;;10.57;;
69775;SDS011;57049;51.450;-2.516;2022-09-03T09:48:59;21.17;;;10.35;;
69775;SDS011;57049;51.450;-2.516;2022-09-03T09:51:26;20.83;;;9.98;;
69775;SDS011;57049;51.450;-2.516;2022-09-03T09:54:00;20.23;;;10.05;;
69775;SDS011;57049;51.450;-2.516;2022-09-03T09:56:26;18.97;;;9.73;;
69775;SDS011;57049;51.450;-2.516;2022-09-03T09:59:04;19.85;;;9.73;;
69775;SDS011;57049;51.450;-2.516;2022-09-03T10:01:32;21.52;;;9.77;;
69775;SDS011;57049;51.450;-2.516;2022-09-03T10:03:59;19.25;;;8.65;;
69775;SDS011;57049;51.450;-2.516;2022-09-03T10:06:52;16.53;;;7.77;;
69775;SDS011;57049;51.450;-2.516;2022-09-03T10:09:35;17.73;;;9.63;;
69775;SDS011;57049;51.450;-2.516;2022-09-03T10:14:36;17.90;;;9.27;;
69775;SDS011;57049;51.450;-2.516;2022-09-03T10:17:22;17.52;;;8.80;;
69775;SDS011;57049;51.450;-2.516;2022-09-03T10:20:10;17.45;;;9.25;;
69775;SDS011;57049;51.450;-2.516;2022-09-03T10:28:31;18.77;;;9.20;;
69775;SDS011;57049;51.450;-2.516;2022-09-03T10:31:06;20.42;;;8.57;;
69775;SDS011;57049;51.450;-2.516;2022-09-03T10:38:47;17.90;;;9.02;;
69775;SDS011;57049;51.450;-2.516;2022-09-03T10:55:18;13.73;;;7.17;;
69775;SDS011;57049;51.450;-2.516;2022-09-03T10:57:59;12.85;;;6.28;;
69775;SDS011;57049;51.450;-2.516;2022-09-03T11:00:51;11.40;;;5.50;;
69775;SDS011;57049;51.450;-2.516;2022-09-03T11:03:26;11.25;;;5.47;;
69775;SDS011;57049;51.450;-2.516;2022-09-03T11:09:12;11.10;;;5.40;;
69775;SDS011;57049;51.450;-2.516;2022-09-03T11:11:55;14.65;;;5.93;;
69775;SDS011;57049;51.450;-2.516;2022-09-03T11:14:27;14.00;;;6.68;;
69775;SDS011;57049;51.450;-2.516;2022-09-03T11:17:12;13.60;;;7.20;;
69775;SDS011;57049;51.450;-2.516;2022-09-03T11:19:55;13.43;;;6.50;;
69775;SDS011;57049;51.450;-2.516;2022-09-03T11:22:31;13.20;;;6.67;;
69775;SDS011;57049;51.450;-2.516;2022-09-03T11:24:58;11.75;;;6.30;;
69775;SDS011;57049;51.450;-2.516;2022-09-03T11:30:14;12.00;;;6.85;;
69775;SDS011;57049;51.450;-2.516;2022-09-03T11:32:49;12.55;;;6.70;;
69775;SDS011;57049;51.450;-2.516;2022-09-03T11:37:59;10.88;;;5.57;;
69775;SDS011;57049;51.450;-2.516;2022-09-03T11:40:37;10.82;;;5.05;;
69775;SDS011;57049;51.450;-2.516;2022-09-03T11:43:46;11.95;;;5.35;;
69775;SDS011;57049;51.450;-2.516;2022-09-03T11:46:10;9.18;;;4.38;;
69775;SDS011;57049;51.450;-2.516;2022-09-03T11:48:55;9.73;;;4.47;;
69775;SDS011;57049;51.450;-2.516;2022-09-03T11:54:30;8.13;;;4.47;;
69775;SDS011;57049;51.450;-2.516;2022-09-03T11:56:50;8.63;;;4.72;;
69775;SDS011;57049;51.450;-2.516;2022-09-03T11:59:29;9.30;;;4.68;;
69775;SDS011;57049;51.450;-2.516;2022-09-03T12:20:37;9.27;;;3.60;;
69775;SDS011;57049;51.450;-2.516;2022-09-03T12:23:04;9.40;;;3.95;;
69775;SDS011;57049;51.450;-2.516;2022-09-03T12:25:31;7.23;;;3.80;;
69775;SDS011;57049;51.450;-2.516;2022-09-03T12:27:57;7.80;;;3.45;;
69775;SDS011;57049;51.450;-2.516;2022-09-03T12:30:27;6.88;;;3.40;;
69775;SDS011;57049;51.450;-2.516;2022-09-03T12:33:16;8.35;;;3.17;;
69775;SDS011;57049;51.450;-2.516;2022-09-03T12:35:42;6.32;;;3.30;;
69775;SDS011;57049;51.450;-2.516;2022-09-03T12:38:08;7.17;;;2.90;;
69775;SDS011;57049;51.450;-2.516;2022-09-03T12:40:40;6.38;;;2.88;;
69775;SDS011;57049;51.450;-2.516;2022-09-03T12:43:11;8.23;;;2.47;;
69775;SDS011;57049;51.450;-2.516;2022-09-03T12:45:42;6.30;;;2.40;;
69775;SDS011;57049;51.450;-2.516;2022-09-03T12:48:16;6.77;;;2.87;;
69775;SDS011;57049;51.450;-2.516;2022-09-03T12:50:44;6.72;;;2.45;;
69775;SDS011;57049;51.450;-2.516;2022-09-03T12:53:15;9.00;;;2.30;;
69775;SDS011;57049;51.450;-2.516;2022-09-03T12:55:53;6.65;;;1.90;;
69775;SDS011;57049;51.450;-2.516;2022-09-03T13:01:10;4.83;;;1.90;;
69775;SDS011;57049;51.450;-2.516;2022-09-03T13:03:47;6.30;;;2.20;;
69775;SDS011;57049;51.450;-2.516;2022-09-03T13:06:23;5.10;;;2.00;;
69775;SDS011;57049;51.450;-2.516;2022-09-03T13:08:54;5.30;;;2.00;;
69775;SDS011;57049;51.450;-2.516;2022-09-03T13:11:23;5.43;;;1.70;;
69775;SDS011;57049;51.450;-2.516;2022-09-03T13:13:53;5.40;;;2.10;;
69775;SDS011;57049;51.450;-2.516;2022-09-03T13:17:07;8.10;;;2.40;;
69775;SDS011;57049;51.450;-2.516;2022-09-03T13:19:39;6.40;;;1.90;;
69775;SDS011;57049;51.450;-2.516;2022-09-03T13:30:18;6.78;;;2.13;;
69775;SDS011;57049;51.450;-2.516;2022-09-03T13:43:51;7.10;;;2.90;;
69775;SDS011;57049;51.450;-2.516;2022-09-03T13:49:21;9.77;;;3.50;;
69775;SDS011;57049;51.450;-2.516;2022-09-03T13:55:26;9.07;;;3.40;;
69775;SDS011;57049;51.450;-2.516;2022-09-03T13:58:33;10.27;;;3.03;;
69775;SDS011;57049;51.450;-2.516;2022-09-03T14:03:34;7.47;;;3.03;;
69775;SDS011;57049;51.450;-2.516;2022-09-03T14:12:02;7.90;;;2.70;;
69775;SDS011;57049;51.450;-2.516;2022-09-03T14:20:25;7.32;;;2.20;;
69775;SDS011;57049;51.450;-2.516;2022-09-03T14:25:21;6.05;;;2.22;;
69775;SDS011;57049;51.450;-2.516;2022-09-03T14:27:49;6.97;;;2.60;;
69775;SDS011;57049;51.450;-2.516;2022-09-03T14:33:24;5.97;;;1.70;;
69775;SDS011;57049;51.450;-2.516;2022-09-03T14:35:35;6.38;;;2.33;;
69775;SDS011;57049;51.450;-2.516;2022-09-03T14:43:29;7.00;;;2.50;;
69775;SDS011;57049;51.450;-2.516;2022-09-03T14:51:51;10.82;;;3.50;;
69775;SDS011;57049;51.450;-2.516;2022-09-03T15:00:05;5.83;;;2.50;;
69775;SDS011;57049;51.450;-2.516;2022-09-03T15:05:48;10.55;;;2.33;;
69775;SDS011;57049;51.450;-2.516;2022-09-03T15:11:19;5.22;;;2.10;;
69775;SDS011;57049;51.450;-2.516;2022-09-03T15:25:06;4.97;;;1.40;;
69775;SDS011;57049;51.450;-2.516;2022-09-03T15:30:18;4.20;;;1.10;;
69775;SDS011;57049;51.450;-2.516;2022-09-03T15:32:50;5.88;;;1.23;;
69775;SDS011;57049;51.450;-2.516;2022-09-03T15:38:36;3.50;;;0.85;;
69775;SDS011;57049;51.450;-2.516;2022-09-03T15:44:00;6.00;;;0.77;;
69775;SDS011;57049;51.450;-2.516;2022-09-03T15:47:04;5.28;;;0.85;;
69775;SDS011;57049;51.450;-2.516;2022-09-03T15:52:29;3.85;;;0.93;;
69775;SDS011;57049;51.450;-2.516;2022-09-03T15:55:24;5.70;;;1.00;;
69775;SDS011;57049;51.450;-2.516;2022-09-03T16:07:08;4.07;;;0.70;;
69775;SDS011;57049;51.450;-2.516;2022-09-03T16:10:14;3.37;;;0.83;;
69775;SDS011;57049;51.450;-2.516;2022-09-03T16:15:28;4.38;;;0.90;;
69775;SDS011;57049;51.450;-2.516;2022-09-03T16:18:18;4.93;;;0.73;;
69775;SDS011;57049;51.450;-2.516;2022-09-03T16:20:56;3.65;;;0.70;;
69775;SDS011;57049;51.450;-2.516;2022-09-03T16:23:36;6.40;;;1.30;;
69775;SDS011;57049;51.450;-2.516;2022-09-03T16:32:10;5.10;;;0.70;;
69775;SDS011;57049;51.450;-2.516;2022-09-03T16:39:51;3.28;;;0.50;;
69775;SDS011;57049;51.450;-2.516;2022-09-03T16:42:52;4.55;;;0.80;;
69775;SDS011;57049;51.450;-2.516;2022-09-03T16:46:21;4.82;;;0.75;;
69775;SDS011;57049;51.450;-2.516;2022-09-03T16:48:57;5.45;;;1.20;;
69775;SDS011;57049;51.450;-2.516;2022-09-03T16:51:56;4.03;;;0.53;;
69775;SDS011;57049;51.450;-2.516;2022-09-03T17:09:19;4.03;;;0.77;;
69775;SDS011;57049;51.450;-2.516;2022-09-03T17:14:23;4.90;;;0.70;;
69775;SDS011;57049;51.450;-2.516;2022-09-03T17:22:34;4.28;;;0.65;;
69775;SDS011;57049;51.450;-2.516;2022-09-03T17:25:17;5.50;;;0.57;;
69775;SDS011;57049;51.450;-2.516;2022-09-03T17:47:04;5.17;;;0.80;;
69775;SDS011;57049;51.450;-2.516;2022-09-03T17:49:51;4.10;;;0.63;;
69775;SDS011;57049;51.450;-2.516;2022-09-03T17:57:58;6.50;;;0.88;;
69775;SDS011;57049;51.450;-2.516;2022-09-03T18:00:50;5.10;;;0.80;;
69775;SDS011;57049;51.450;-2.516;2022-09-03T18:03:44;4.25;;;0.98;;
69775;SDS011;57049;51.450;-2.516;2022-09-03T18:06:27;7.80;;;1.00;;
69775;SDS011;57049;51.450;-2.516;2022-09-03T18:09:02;3.35;;;0.70;;
69775;SDS011;57049;51.450;-2.516;2022-09-03T18:11:46;5.63;;;0.82;;
69775;SDS011;57049;51.450;-2.516;2022-09-03T18:17:00;6.35;;;0.73;;
69775;SDS011;57049;51.450;-2.516;2022-09-03T18:19:32;5.22;;;0.75;;
69775;SDS011;57049;51.450;-2.516;2022-09-03T18:22:40;5.28;;;0.90;;
69775;SDS011;57049;51.450;-2.516;2022-09-03T18:25:52;5.38;;;1.00;;
69775;SDS011;57049;51.450;-2.516;2022-09-03T18:28:50;6.87;;;0.80;;
69775;SDS011;57049;51.450;-2.516;2022-09-03T18:31:42;4.75;;;0.93;;
69775;SDS011;57049;51.450;-2.516;2022-09-03T18:34:34;5.25;;;1.00;;
69775;SDS011;57049;51.450;-2.516;2022-09-03T18:37:23;4.85;;;0.73;;
69775;SDS011;57049;51.450;-2.516;2022-09-03T18:40:10;4.95;;;0.95;;
69775;SDS011;57049;51.450;-2.516;2022-09-03T18:49:52;4.97;;;0.60;;
69775;SDS011;57049;51.450;-2.516;2022-09-03T18:52:56;5.97;;;1.10;;
69775;SDS011;57049;51.450;-2.516;2022-09-03T19:11:36;4.93;;;0.85;;
69775;SDS011;57049;51.450;-2.516;2022-09-03T19:23:12;5.25;;;1.10;;
69775;SDS011;57049;51.450;-2.516;2022-09-03T19:28:59;5.13;;;1.10;;
69775;SDS011;57049;51.450;-2.516;2022-09-03T19:31:53;7.78;;;1.25;;
69775;SDS011;57049;51.450;-2.516;2022-09-03T19:37:40;6.85;;;1.52;;
69775;SDS011;57049;51.450;-2.516;2022-09-03T19:46:44;4.63;;;1.38;;
69775;SDS011;57049;51.450;-2.516;2022-09-03T19:55:47;7.60;;;1.50;;
69775;SDS011;57049;51.450;-2.516;2022-09-03T19:58:37;7.77;;;1.87;;
69775;SDS011;57049;51.450;-2.516;2022-09-03T20:01:30;13.02;;;1.80;;
69775;SDS011;57049;51.450;-2.516;2022-09-03T20:04:17;5.82;;;1.58;;
69775;SDS011;57049;51.450;-2.516;2022-09-03T20:07:04;5.13;;;1.42;;
69775;SDS011;57049;51.450;-2.516;2022-09-03T20:09:51;7.43;;;1.52;;
69775;SDS011;57049;51.450;-2.516;2022-09-03T20:12:42;7.07;;;1.63;;
69775;SDS011;57049;51.450;-2.516;2022-09-03T20:15:11;6.20;;;1.73;;
69775;SDS011;57049;51.450;-2.516;2022-09-03T20:20:09;10.38;;;2.03;;
69775;SDS011;57049;51.450;-2.516;2022-09-03T20:22:44;5.82;;;1.48;;
69775;SDS011;57049;51.450;-2.516;2022-09-03T20:30:42;5.00;;;1.20;;
69775;SDS011;57049;51.450;-2.516;2022-09-03T20:33:25;5.60;;;1.65;;
69775;SDS011;57049;51.450;-2.516;2022-09-03T20:36:07;6.82;;;1.92;;
69775;SDS011;57049;51.450;-2.516;2022-09-03T20:44:52;5.70;;;1.60;;
69775;SDS011;57049;51.450;-2.516;2022-09-03T20:52:43;5.35;;;1.88;;
69775;SDS011;57049;51.450;-2.516;2022-09-03T20:55:20;6.88;;;1.63;;
69775;SDS011;57049;51.450;-2.516;2022-09-03T20:57:58;5.90;;;1.90;;
69775;SDS011;57049;51.450;-2.516;2022-09-03T21:00:34;7.10;;;1.80;;
69775;SDS011;57049;51.450;-2.516;2022-09-03T21:11:22;7.67;;;1.90;;